23h15 EDT


 

Suivi/Infos de l'aéroport


-ou-


 

Suivi des vols en temps réel9Y-TTC ✈ 01-05-2013 ✈ TTCP / TAB - TTPP / POS

Thumbnail
9Y-TTC / BWA1541
Unknown Owner · Trinidad & Tobago
Crown Point ( – info)
Scarborough, Tobago TT
Piarco Int'l ( – info)
Port-d'Espagne TT
Prévu: 21h45 AST
Prévu: 21h50 AST
Durée: 18 minutes
mercredi, 1 mai 2013
Statut Arrivé il y a 51 semaines (journal de vol & graphique)
Avion Aerospatiale ATR-42-300 (bi-turbopropulseur) (AT43 – photos)
Vitesse Plan de vol: 532 kts (graphique)
Distance En ligne droite 83 km
Une partie au moins de ce vol se déroule hors de la zone de services primaire de FlightAware. Pour en savoir plus sur la couverture et la zone de services de FlightAware.
JOURNAL DE L'ACTIVITE
Vous voulez une recherche complète sur l'historique de 9Y-TTC depuis 1998? Achetez maintenant. Recevez-le dans l'heure.
Date Avion Provenance Destination Départ Arrivée Durée
23-04-2014 AT43Piarco Int'l ()Crown Point () 22h44 AST 23h03 AST En vol
23-04-2014 AT43Crown Point ()Piarco Int'l () 21h47 AST 22h05 AST 0:18
23-04-2014 AT43Piarco Int'l ()Crown Point () 21h00 AST 21h15 AST 0:14
23-04-2014 AT43Crown Point ()Piarco Int'l () 19h38 AST 19h54 AST 0:16
23-04-2014 AT43Piarco Int'l ()Crown Point () 18h44 AST 19h01 AST 0:17
23-04-2014 AT43Crown Point ()Piarco Int'l () 17h47 AST 18h08 AST 0:21
23-04-2014 AT43Piarco Int'l ()Crown Point () 16h48 AST 17h09 AST 0:21
23-04-2014 AT43Crown Point ()Piarco Int'l () 15h37 AST 15h53 AST 0:16
23-04-2014 AT43Piarco Int'l ()Crown Point () 14h48 AST 15h08 AST 0:20
23-04-2014 AT43Crown Point ()Piarco Int'l () 13h29 AST 13h46 AST 0:17
23-04-2014 AT43Piarco Int'l ()Crown Point () 12h28 AST 12h41 AST 0:12
23-04-2014 AT43Int'l Maiquetía ~ Simón Bolívar ()Piarco Int'l () 09h13 VET 11h12 AST 1:29
23-04-2014 AT43Piarco Int'l ()Int'l Maiquetía ~ Simón Bolívar () 07h14 AST 08h16 VET 1:31
22-04-2014 AT43Point Salines Int'l ()Piarco Int'l () 20h37 AST 21h10 AST 0:33
22-04-2014 AT43Piarco Int'l ()Point Salines Int'l () 19h18 AST 19h52 AST 0:34
22-04-2014 AT43Crown Point ()Piarco Int'l () 11h17 AST 11h30 AST 0:13
22-04-2014 AT43Piarco Int'l ()Crown Point () 10h16 AST 10h32 AST 0:15
22-04-2014 AT43Crown Point ()Piarco Int'l () 09h22 AST 09h30 AST 0:07
22-04-2014 AT43Piarco Int'l ()Crown Point () 08h16 AST 08h31 AST 0:14
22-04-2014 AT43Crown Point ()Piarco Int'l () 07h24 AST 07h33 AST 0:08
22-04-2014 AT43Piarco Int'l ()Crown Point () 06h14 AST 06h30 AST 0:15
21-04-2014 AT43Crown Point ()Piarco Int'l () 21h44 AST 22h03 AST 0:19
21-04-2014 AT43Piarco Int'l ()Crown Point () 20h49 AST 21h03 AST 0:13
21-04-2014 AT43Crown Point ()Piarco Int'l () 17h48 AST 18h07 AST 0:19
21-04-2014 AT43Piarco Int'l ()Crown Point () 16h56 AST 17h11 AST 0:14
21-04-2014 AT43Crown Point ()Piarco Int'l () 13h57 AST 14h21 AST 0:24
21-04-2014 AT43Piarco Int'l ()Crown Point () 12h44 AST 12h59 AST 0:14
21-04-2014 AT43Int'l Maiquetía ~ Simón Bolívar ()Piarco Int'l () 09h33 VET 11h29 AST 1:26
21-04-2014 AT43Piarco Int'l ()Int'l Maiquetía ~ Simón Bolívar () 07h19 AST 08h23 VET 1:33
20-04-2014 AT43Int'l Grantley-Adams ()Piarco Int'l () 21h03 AST 21h58 AST 0:55
20-04-2014 AT43Piarco Int'l ()Int'l Grantley-Adams () 19h13 AST 20h00 AST 0:46
20-04-2014 AT43George F. L. Charles ()Piarco Int'l () 15h29 AST 16h51 AST 1:22
20-04-2014 AT43Piarco Int'l ()George F. L. Charles () 14h09 AST 15h06 AST 0:56
20-04-2014 AT43Crown Point ()Piarco Int'l () 12h14 AST 12h34 AST 0:20
20-04-2014 AT43Piarco Int'l ()Crown Point () 11h14 AST 11h32 AST 0:18
20-04-2014 AT43Crown Point ()Piarco Int'l () 10h07 AST 10h28 AST 0:21
20-04-2014 AT43Piarco Int'l ()Crown Point () 09h08 AST 09h24 AST 0:15
20-04-2014 AT43Int'l Grantley-Adams ()Piarco Int'l () 07h17 AST 08h09 AST 0:52
20-04-2014 AT43Piarco Int'l ()Int'l Grantley-Adams () 05h55 AST 06h45 AST 0:49
19-04-2014 AT43Crown Point ()Piarco Int'l () 21h41 AST 21h58 AST 0:17
19-04-2014 AT43Piarco Int'l ()Crown Point () 20h51 AST 21h07 AST 0:15
19-04-2014 AT43Crown Point ()Piarco Int'l () 13h13 AST 13h31 AST 0:18
19-04-2014 AT43Piarco Int'l ()Crown Point () 12h29 AST 12h46 AST 0:16
19-04-2014 AT43Crown Point ()Piarco Int'l () 11h14 AST 11h26 AST 0:11
19-04-2014 AT43Piarco Int'l ()Crown Point () 10h16 AST 10h30 AST 0:13
19-04-2014 AT43Crown Point ()Piarco Int'l () 08h58 AST 09h15 AST 0:17
19-04-2014 AT43Piarco Int'l ()Crown Point () 08h14 AST 08h30 AST 0:16
19-04-2014 AT43Crown Point ()Piarco Int'l () 07h11 AST 07h30 AST 0:19
19-04-2014 AT43Piarco Int'l ()Crown Point () 06h25 AST 06h38 AST 0:12
19-04-2014 AT43Crown Point ()Piarco Int'l () 01h20 AST 02h00 AST (?) 0:40
19-04-2014 AT43Piarco Int'l ()Crown Point () 00h26 AST 00h40 AST (+1) Inconnu
18-04-2014 AT43Crown Point ()Piarco Int'l () 23h29 AST 23h46 AST 0:17
18-04-2014 AT43Piarco Int'l ()Crown Point () 22h47 AST 23h02 AST 0:14
18-04-2014 AT43Crown Point ()Piarco Int'l () 21h35 AST 21h53 AST 0:18
18-04-2014 AT43Piarco Int'l ()Crown Point () 20h44 AST 21h01 AST 0:16
18-04-2014 AT43Crown Point ()Piarco Int'l () 19h28 AST 19h40 AST 0:11
18-04-2014 AT43Piarco Int'l ()Crown Point () 18h33 AST 18h50 AST 0:17
18-04-2014 AT43Crown Point ()Piarco Int'l () 17h40 AST 17h58 AST 0:18
18-04-2014 AT43Piarco Int'l ()Crown Point () 16h54 AST 17h10 AST 0:15
18-04-2014 AT43Crown Point ()Piarco Int'l () 15h54 AST 16h12 AST 0:18
18-04-2014 AT43Piarco Int'l ()Crown Point () 15h07 AST 15h23 AST 0:15
18-04-2014 AT43Crown Point ()Piarco Int'l () 13h18 AST 13h35 AST 0:17
18-04-2014 AT43Piarco Int'l ()Crown Point () 12h29 AST 12h44 AST 0:14
18-04-2014 AT43Crown Point ()Piarco Int'l () 11h13 AST 11h36 AST 0:23
18-04-2014 AT43Piarco Int'l ()Crown Point () 10h26 AST 10h40 AST 0:13
18-04-2014 AT43Crown Point ()Piarco Int'l () 09h25 AST 09h45 AST 0:20
18-04-2014 AT43Piarco Int'l ()Crown Point () 08h25 AST 08h41 AST 0:15
18-04-2014 AT43Crown Point ()Piarco Int'l () 07h08 AST 07h31 AST 0:23
18-04-2014 AT43Piarco Int'l ()Crown Point () 06h19 AST 06h36 AST 0:16
17-04-2014 AT43Crown Point ()Piarco Int'l () 21h02 AST 21h19 AST 0:17
17-04-2014 AT43Piarco Int'l ()Crown Point () 19h46 AST 20h07 AST 0:21
17-04-2014 AT43Crown Point ()Piarco Int'l () 01h37 AST 01h54 AST 0:17
17-04-2014 AT43Piarco Int'l ()Crown Point () 00h52 AST 01h04 AST 0:11
16-04-2014 AT43Crown Point ()Piarco Int'l () 23h25 AST 23h45 AST (?) 0:20
16-04-2014 AT43Piarco Int'l ()Crown Point () 22h43 AST 22h56 AST 0:12
16-04-2014 AT43Crown Point ()Piarco Int'l () 20h44 AST 21h02 AST 0:18
16-04-2014 AT43Piarco Int'l ()Crown Point () 19h55 AST 20h11 AST 0:16
16-04-2014 AT43Crown Point ()Piarco Int'l () 18h48 AST 19h08 AST 0:20
16-04-2014 AT43Piarco Int'l ()Crown Point () 17h52 AST 18h06 AST 0:13
16-04-2014 AT43Crown Point ()Piarco Int'l () 16h46 AST 17h04 AST 0:18
16-04-2014 AT43Piarco Int'l ()Crown Point () 15h54 AST 16h11 AST 0:17
16-04-2014 AT43Crown Point ()Piarco Int'l () 14h35 AST 14h54 AST 0:19
16-04-2014 AT43Piarco Int'l ()Crown Point () 13h45 AST 13h59 AST 0:13
16-04-2014 AT43Int'l Maiquetía ~ Simón Bolívar ()Piarco Int'l () 09h13 VET 11h09 AST 1:26
16-04-2014 AT43Piarco Int'l ()Int'l Maiquetía ~ Simón Bolívar () 07h05 AST 08h11 VET 1:35
15-04-2014 AT43Int'l Grantley-Adams ()Piarco Int'l () 21h13 AST 22h08 AST 0:55
15-04-2014 AT43Piarco Int'l ()Int'l Grantley-Adams () 19h32 AST 20h20 AST 0:47
15-04-2014 AT43George F. L. Charles ()Piarco Int'l () 15h45 AST 16h44 AST 0:59
15-04-2014 AT43Piarco Int'l ()George F. L. Charles () 14h16 AST 15h10 AST 0:53
15-04-2014 AT43Crown Point ()Piarco Int'l () 11h08 AST 11h25 AST 0:17
15-04-2014 AT43Piarco Int'l ()Crown Point () 10h11 AST 10h30 AST 0:19
15-04-2014 AT43Crown Point ()Piarco Int'l () 08h57 AST 09h19 AST 0:22
15-04-2014 AT43Piarco Int'l ()Crown Point () 07h59 AST 08h15 AST 0:16
15-04-2014 AT43Crown Point ()Piarco Int'l () 07h01 AST 07h17 AST 0:16
15-04-2014 AT43Piarco Int'l ()Crown Point () 06h10 AST 06h28 AST 0:18
15-04-2014 AT43Crown Point ()Piarco Int'l () 02h00 AST 02h18 AST 0:18
15-04-2014 AT43Piarco Int'l ()Crown Point () 01h21 AST 01h35 AST 0:13
15-04-2014 AT43Crown Point ()Piarco Int'l () 00h31 AST 00h50 AST 0:19
14-04-2014 AT43Piarco Int'l ()Crown Point () 23h33 AST 23h48 AST 0:14
Les membres inscrits (l'inscription est gratuite et facile!) voient 4 months d'historique. S'inscrire